CheckWX is a tool to help pilots better visualize weather data.  It is not intended as a substitute for an official pre-flight weather briefing.

18:01:34 UTC

PAYA TAF
Yakutat Airport
Yakutat, Alaska, USA
PAYA 171739Z 1718/1818 05004KT 4SM -SN SCT025 OVC035 TEMPO 1718/1720 2SM -SN BKN025 OVC035 FM172000 07006KT 2SM -SN BR OVC025 WS020/14030KT TEMPO 1720/1724 1SM -SN BR OVC020 FM180100 08010G20KT 2SM -SN BR OVC008 WS020/13035KT FM180600 10012G22KT 1/2SM SN OVC008 WS020/15050KT FM181000 20010KT 4SM -RASN BR SCT008 OVC015 AMD LTD TO CLD VIS AND WIND

Feb-17@
18:00 UTC

Feb-17 @ 18:00 UTC

Feb-17@
20:00 UTC

Feb-17 @ 20:00 UTC

PAYA 171739Z 1718/1818 05004KT 4SM -SN SCT025 OVC035
Wind
  • 050° at 4 KTS
Visibility
4 SM
Conditions
Light Snow
Cloud Levels
  • Scattered at 2,500' AGL
  • Overcast at 3,500' AGL

Feb-17@
18:00 UTC

Feb-17 @ 18:00 UTC

Feb-17@
20:00 UTC

Feb-17 @ 20:00 UTC

TEMPO 1718/1720 2SM -SN BKN025 OVC035

Temporary

TemporaryChanges expected for less than half the time period

Visibility
2 SM
Conditions
Light Snow
Cloud Levels
  • Broken at 2,500' AGL
  • Overcast at 3,500' AGL

Feb-17@
20:00 UTC

Feb-17 @ 20:00 UTC

Feb-18@
00:00 UTC

Feb-18 @ 00:00 UTC

TEMPO 1720/1724 1SM -SN BR OVC020

Temporary

TemporaryChanges expected for less than half the time period

Visibility
1 SM
Conditions
Light Snow, Mist
Cloud Levels
  • Overcast at 2,000' AGL

Feb-17@
20:00 UTC

Feb-17 @ 20:00 UTC

Feb-18@
01:00 UTC

Feb-18 @ 01:00 UTC

FM172000 07006KT 2SM -SN BR OVC025 WS020/14030KT

From

FromStandard forecast or significant change

Wind
  • 070° at 6 KTS
  • Wind shear 2,000' AGL from 140° at 30 KTS
Visibility
2 SM
Conditions
Light Snow, Mist
Cloud Levels
  • Overcast at 2,500' AGL

Feb-18@
01:00 UTC

Feb-18 @ 01:00 UTC

Feb-18@
06:00 UTC

Feb-18 @ 06:00 UTC

FM180100 08010G20KT 2SM -SN BR OVC008 WS020/13035KT

From

FromStandard forecast or significant change

Wind
  • 080° at 10 KTS
  • {Gusting to 20 KTS
  • Wind shear 2,000' AGL from 130° at 35 KTS
Visibility
2 SM
Conditions
Light Snow, Mist
Cloud Levels
  • Overcast at 800' AGL

Feb-18@
06:00 UTC

Feb-18 @ 06:00 UTC

Feb-18@
10:00 UTC

Feb-18 @ 10:00 UTC

FM180600 10012G22KT 1/2SM SN OVC008 WS020/15050KT

From

FromStandard forecast or significant change

Wind
  • 100° at 12 KTS
  • {Gusting to 22 KTS
  • Wind shear 2,000' AGL from 150° at 50 KTS
Visibility
1/2 SM
Conditions
Snow
Cloud Levels
  • Overcast at 800' AGL

Feb-18@
10:00 UTC

Feb-18 @ 10:00 UTC

Feb-18@
18:00 UTC

Feb-18 @ 18:00 UTC

FM181000 20010KT 4SM -RASN BR SCT008 OVC015 AMD LTD TO CLD VIS AND WIND

From

FromStandard forecast or significant change

Wind
  • 200° at 10 KTS
Visibility
4 SM
Conditions
Light Rain, Light Snow, Mist
Cloud Levels
  • Scattered at 800' AGL
  • Overcast at 1,500' AGL